Bei Facebook empfehlenBei Twitter postenGoogle plusPinterest

Das Wetter im Erzgebirge am 24.10.2016

Wetter und Klima am 24.10.2016 Holzhau im Erzgebirge (630m ü.NN)
Letzte gemessene Temperatur und Uhrzeit der Messung23:45:00 Uhr8.10 °C
Temperatur (Maximum / Höchstwert) und Uhrzeit der Messung13:30:00 Uhr10.20 °C
Temperatur (Minimum / Tiefstwert) und Uhrzeit der Messung02:00:004.10 °C
Errechneter Absolutwert der Temperaturschwankungen zwischen Tmin und Tmax des Tages6.10 K
Errechnete Tagesmitteltemperatur6.86458 °C
Gesamt - Niederschlag des Tages (in flüssiger Form)3.11 Liter / m²
Luftdruck (Maximum / Höchstwert) und Zeitpunkt der Messung11:30:00 Uhr1012.40 hPa
Luftdruck (Minimum / Tiefstwert) und Zeitpunkt der Messung02:15:00 Uhr1010.30 hPa
Errechneter Absolutwert der Luftdruckschwankungen des Tages2.10 hPa
Höchste gemessene Windgeschwindigkeit und Uhrzeit der Messung23:45:00 Uhr0.00 km/h
Errechnete Windhäufigkeit in Relation zu den Messwerten des Tages0.00000 %
Niedrigste Windkühle (Windchill) und Zeitpunkt der Messung02:00:00 Uhr4.10 °C
Taupunkt (Maximum / Höchstwert) und Uhrzeit der Messung13:30:00 Uhr9.40 °C
Taupunkt (Minimum / Tiefstwert) und Uhrzeit der Messung02:00:003.10 °C
Anzahl der automatisch eingelesenen Messwerte 96

Detaillierte Wetter- und Klima- Messwerte für den 24.10.2016 in Holzhau im Erzgebirge (630m ü.NN)
ZeitTemperaturLuftdruckRel. LuftfeuchteWindWindrichtungWindchillTaupunktNiederschlag l/m²
23:45:008.10 °C1011.20 hPa95.00 %7.30 °C3.11
23:30:008.50 °C1011.40 hPa95.00 %7.70 °C3.11
23:15:008.90 °C1011.30 hPa95.00 %8.10 °C3.11
23:00:009.10 °C1011.20 hPa95.00 %8.30 °C3.11
22:45:009.30 °C1011.10 hPa96.00 %8.70 °C3.11
22:30:009.30 °C1010.90 hPa96.00 %8.70 °C3.11
22:15:009.00 °C1011.10 hPa96.00 %8.40 °C3.11
22:00:008.90 °C1010.60 hPa96.00 %8.30 °C3.11
21:45:008.80 °C1010.50 hPa95.00 %8.00 °C3.11
21:30:008.80 °C1010.40 hPa95.00 %8.00 °C3.11
21:15:008.70 °C1010.70 hPa95.00 %7.90 °C3.11
21:00:008.60 °C1010.70 hPa95.00 %7.80 °C3.11
20:45:008.40 °C1010.60 hPa95.00 %7.60 °C3.11
20:30:008.30 °C1010.70 hPa95.00 %7.50 °C3.11
20:15:008.20 °C1010.50 hPa95.00 %7.40 °C3.11
20:00:008.20 °C1010.60 hPa95.00 %7.40 °C3.11
19:45:008.30 °C1011.10 hPa95.00 %7.50 °C3.11
19:30:008.20 °C1011.20 hPa95.00 %7.40 °C3.11
19:15:008.10 °C1011.10 hPa95.00 %7.30 °C3.11
19:00:007.90 °C1011.20 hPa95.00 %7.10 °C3.11
18:45:007.70 °C1011.10 hPa95.00 %7.00 °C3.11
18:30:007.60 °C1011.10 hPa94.00 %6.70 °C3.11
18:15:007.50 °C1011.10 hPa94.00 %6.60 °C3.11
18:00:007.50 °C1011.10 hPa94.00 %6.60 °C3.11
17:45:007.60 °C1011.10 hPa94.00 %6.70 °C2.59
17:30:007.80 °C1011.40 hPa93.00 %6.70 °C2.59
17:15:007.90 °C1011.20 hPa93.00 %6.80 °C2.59
17:00:008.20 °C1011.20 hPa93.00 %7.10 °C2.59
16:45:008.30 °C1011.50 hPa93.00 %7.20 °C2.59
16:30:008.80 °C1011.10 hPa94.00 %7.90 °C2.59
16:15:009.20 °C1011.20 hPa94.00 %8.30 °C2.59
16:00:009.00 °C1010.90 hPa94.00 %8.10 °C2.59
15:45:008.60 °C1010.70 hPa94.00 %7.70 °C2.59
15:30:008.40 °C1010.90 hPa93.00 %7.30 °C2.59
15:15:008.40 °C1011.60 hPa93.00 %7.30 °C2.59
15:00:008.50 °C1012.00 hPa93.00 %7.40 °C2.59
14:45:008.90 °C1011.90 hPa94.00 %8.00 °C2.59
14:30:009.30 °C1012.00 hPa94.00 %8.40 °C2.59
14:15:009.50 °C1012.20 hPa94.00 %8.60 °C2.59
14:00:009.80 °C1012.10 hPa94.00 %8.90 °C2.59
13:45:009.90 °C1012.10 hPa94.00 %9.00 °C2.59
13:30:0010.20 °C1012.10 hPa95.00 %9.40 °C2.59
13:15:009.90 °C1012.00 hPa95.00 %9.10 °C2.59
13:00:009.80 °C1011.80 hPa95.00 %9.00 °C2.59
12:45:009.60 °C1012.10 hPa95.00 %8.80 °C2.59
12:30:008.70 °C1012.10 hPa95.00 %7.90 °C2.59
12:15:008.10 °C1012.20 hPa95.00 %7.30 °C2.59
12:00:008.00 °C1012.10 hPa95.00 %7.20 °C2.59
11:45:007.80 °C1012.00 hPa95.00 %7.10 °C2.59
11:30:007.40 °C1012.40 hPa95.00 %6.70 °C2.07
11:15:007.30 °C1012.40 hPa95.00 %6.60 °C2.07
11:00:007.50 °C1012.40 hPa95.00 %6.80 °C2.07
10:45:007.80 °C1012.20 hPa96.00 %7.20 °C2.07
10:30:008.30 °C1012.00 hPa96.00 %7.70 °C2.07
10:15:007.80 °C1011.30 hPa96.00 %7.20 °C2.07
10:00:007.20 °C1011.70 hPa96.00 %6.60 °C2.07
09:45:006.20 °C1011.50 hPa95.00 %5.50 °C2.07
09:30:005.90 °C1011.50 hPa95.00 %5.20 °C2.07
09:15:005.70 °C1011.60 hPa95.00 %5.00 °C2.07
09:00:005.60 °C1011.60 hPa95.00 %4.90 °C2.07
08:45:005.40 °C1011.60 hPa95.00 %4.70 °C2.07
08:30:005.20 °C1011.70 hPa95.00 %4.50 °C2.07
08:15:005.00 °C1011.50 hPa95.00 %4.30 °C2.07
08:00:004.90 °C1011.30 hPa95.00 %4.20 °C2.07
07:45:004.90 °C1011.30 hPa95.00 %4.20 °C2.07
07:30:004.80 °C1011.20 hPa95.00 %4.10 °C2.07
07:15:004.80 °C1011.50 hPa95.00 %4.10 °C2.07
07:00:004.80 °C1011.50 hPa95.00 %4.10 °C2.07
06:45:004.70 °C1011.40 hPa95.00 %4.00 °C2.07
06:30:004.60 °C1011.40 hPa95.00 %3.90 °C2.07
06:15:004.50 °C1011.20 hPa95.00 %3.80 °C2.07
06:00:004.50 °C1011.00 hPa94.00 %3.60 °C2.07
05:45:004.40 °C1010.90 hPa94.00 %3.50 °C2.07
05:30:004.40 °C1011.00 hPa94.00 %3.50 °C1.56
05:15:004.40 °C1010.90 hPa94.00 %3.50 °C1.56
05:00:004.40 °C1010.80 hPa94.00 %3.50 °C1.56
04:45:004.30 °C1010.80 hPa94.00 %3.40 °C1.56
04:30:004.20 °C1010.60 hPa94.00 %3.30 °C1.56
04:15:004.20 °C1010.50 hPa94.00 %3.30 °C1.56
04:00:004.20 °C1010.70 hPa94.00 %3.30 °C1.04
03:45:004.20 °C1010.80 hPa94.00 %3.30 °C1.04
03:30:004.30 °C1011.10 hPa94.00 %3.40 °C1.04
03:15:004.30 °C1011.00 hPa94.00 %3.40 °C0.52
03:00:004.40 °C1010.90 hPa94.00 %3.50 °C 
02:45:004.30 °C1010.70 hPa94.00 %3.40 °C 
02:30:004.30 °C1010.70 hPa93.00 %3.30 °C 
02:15:004.20 °C1010.30 hPa93.00 %3.20 °C 
02:00:004.10 °C1010.50 hPa93.00 %3.10 °C 
01:45:004.10 °C1010.40 hPa93.00 %3.10 °C 
01:30:004.20 °C1010.60 hPa93.00 %3.20 °C 
01:15:004.30 °C1010.70 hPa93.00 %3.30 °C 
01:00:004.30 °C1010.60 hPa93.00 %3.30 °C 
00:45:004.20 °C1010.60 hPa93.00 %3.20 °C 
00:30:004.10 °C1010.50 hPa93.00 %3.10 °C 
00:15:004.10 °C1010.50 hPa93.00 %3.10 °C 
00:00:004.20 °C1010.50 hPa93.00 %3.20 °C 

Permanenter Link zu dieser Seite: Wetter im Erzgebirge am 24.10.2016
Performance-Info: Die Erstellung der Seite / Statistik(en) / Tabelle(n) erforderte 5 Datenbankserver-Abfrage(n) und dauerte 99 Millisekunden. (Dieser Messwert ist von der Gesamt-Auslastung des Servers abhängig.)
Erzgebirge - Wetter | Erzgebirge - Wetter (Mobilgeräte) | Komplette Klimadatenbank